createdAt,value
2022-09-04T00:01:46.328Z,18.70
2022-09-04T00:05:13.516Z,32.97
2022-09-04T00:08:56.871Z,22.42
2022-09-04T00:12:27.958Z,19.95
2022-09-04T00:16:04.951Z,36.78
2022-09-04T00:19:31.062Z,21.80
2022-09-04T00:22:57.702Z,27.02
2022-09-04T00:26:41.429Z,29.90
2022-09-04T00:30:05.440Z,30.40
2022-09-04T00:33:38.226Z,36.25
2022-09-04T00:37:05.862Z,38.40
2022-09-04T00:40:31.229Z,31.08
2022-09-04T00:44:12.122Z,28.67
2022-09-04T00:47:33.954Z,29.35
2022-09-04T00:51:24.634Z,30.63
2022-09-04T00:55:12.475Z,29.10
2022-09-04T00:59:01.361Z,36.50
2022-09-04T01:03:07.917Z,24.50
2022-09-04T01:06:35.407Z,22.50
2022-09-04T01:10:06.277Z,26.98
2022-09-04T01:14:00.673Z,16.05
2022-09-04T01:17:51.809Z,23.42
2022-09-04T01:21:50.730Z,21.65
2022-09-04T01:25:32.566Z,23.02
2022-09-04T01:29:22.492Z,17.00
2022-09-04T01:32:44.352Z,16.02
2022-09-04T01:36:18.671Z,21.15
2022-09-04T01:39:45.835Z,25.75
2022-09-04T01:43:21.100Z,28.20
2022-09-04T01:46:58.971Z,17.65
2022-09-04T01:50:26.387Z,29.17
2022-09-04T01:54:10.659Z,23.67
2022-09-04T01:57:38.462Z,21.25
2022-09-04T02:01:21.483Z,17.75
2022-09-04T02:04:48.727Z,17.25
2022-09-04T02:08:33.244Z,27.50
2022-09-04T02:12:08.777Z,16.60
2022-09-04T02:15:43.797Z,16.00
2022-09-04T02:19:20.445Z,24.88
2022-09-04T02:23:16.084Z,25.30
2022-09-04T02:27:02.505Z,18.17
2022-09-04T02:30:24.646Z,17.25
2022-09-04T02:34:07.323Z,15.15
2022-09-04T02:37:45.526Z,26.48
2022-09-04T02:41:07.288Z,15.13
2022-09-04T02:44:48.999Z,20.58
2022-09-04T02:48:28.936Z,12.50
2022-09-04T02:52:15.159Z,17.80
2022-09-04T02:56:02.490Z,16.88
2022-09-04T02:59:55.284Z,16.25
2022-09-04T03:03:27.596Z,13.93
2022-09-04T03:06:54.886Z,37.22
2022-09-04T03:10:24.693Z,19.73
2022-09-04T03:14:24.575Z,19.45
2022-09-04T03:18:37.314Z,28.05
2022-09-04T03:22:13.301Z,13.88
2022-09-04T03:25:45.844Z,20.20
2022-09-04T03:29:35.012Z,15.93
2022-09-04T03:33:12.543Z,32.25
2022-09-04T03:36:46.930Z,18.98
2022-09-04T03:40:33.142Z,24.38
2022-09-04T03:44:18.241Z,17.10
2022-09-04T03:48:11.089Z,22.08
2022-09-04T03:51:55.019Z,12.10
2022-09-04T03:55:42.890Z,20.40
2022-09-04T03:59:08.882Z,24.65
2022-09-04T04:02:51.837Z,12.93
2022-09-04T04:06:13.650Z,13.27
2022-09-04T04:09:59.116Z,18.77
2022-09-04T04:13:56.863Z,19.38
2022-09-04T04:17:47.110Z,36.95
2022-09-04T04:21:13.789Z,13.30
2022-09-04T04:24:38.987Z,28.02
2022-09-04T04:28:38.846Z,36.22
2022-09-04T04:32:13.531Z,14.18
2022-09-04T04:36:13.164Z,16.55
2022-09-04T04:40:18.424Z,11.48
2022-09-04T04:43:58.947Z,17.27
2022-09-04T04:47:35.307Z,18.20
2022-09-04T04:51:22.644Z,38.40
2022-09-04T04:54:51.299Z,16.92
2022-09-04T04:58:35.311Z,11.65
2022-09-04T05:02:19.214Z,24.98
2022-09-04T05:05:57.272Z,9.38
2022-09-04T05:09:31.628Z,45.88
2022-09-04T05:13:11.147Z,51.67
2022-09-04T05:16:54.891Z,25.40
2022-09-04T05:20:24.983Z,18.65
2022-09-04T05:23:58.900Z,8.65
2022-09-04T05:27:20.625Z,12.18
2022-09-04T05:30:49.138Z,28.73
2022-09-04T05:34:25.719Z,6.72
2022-09-04T05:38:08.842Z,7.97
2022-09-04T05:41:36.323Z,5.85
2022-09-04T05:45:01.607Z,9.50
2022-09-04T05:48:30.283Z,4.68
2022-09-04T05:52:25.251Z,13.13
2022-09-04T05:56:04.626Z,8.40
2022-09-04T05:59:59.675Z,7.82
2022-09-04T06:03:31.386Z,4.53
2022-09-04T06:07:20.718Z,5.35
2022-09-04T06:11:23.589Z,6.13
2022-09-04T06:15:03.659Z,5.00
2022-09-04T06:18:43.601Z,5.68
2022-09-04T06:22:18.943Z,9.18
2022-09-04T06:26:15.956Z,5.45
2022-09-04T06:30:06.772Z,4.45
2022-09-04T06:33:31.589Z,8.40
2022-09-04T06:37:10.083Z,8.15
2022-09-04T06:40:48.818Z,13.60
2022-09-04T06:44:31.481Z,8.80
2022-09-04T06:47:53.272Z,10.13
2022-09-04T06:51:21.824Z,7.95
2022-09-04T06:55:15.255Z,2.50
2022-09-04T06:58:52.401Z,8.18
2022-09-04T07:02:41.497Z,4.15
2022-09-04T07:06:21.765Z,6.65
2022-09-04T07:10:19.999Z,9.10
2022-09-04T07:14:16.281Z,6.30
2022-09-04T07:18:01.445Z,6.72
2022-09-04T07:21:52.149Z,6.32
2022-09-04T07:25:23.283Z,5.95
2022-09-04T07:29:16.145Z,5.53
2022-09-04T07:32:52.767Z,7.43
2022-09-04T07:36:18.087Z,5.25
2022-09-04T07:39:45.648Z,5.10
2022-09-04T07:43:13.155Z,5.03
2022-09-04T07:46:48.014Z,8.27
2022-09-04T07:50:18.738Z,5.00
2022-09-04T07:54:06.481Z,7.28
2022-09-04T07:58:02.351Z,5.82
2022-09-04T08:01:33.553Z,5.97
2022-09-04T08:05:10.966Z,4.95
2022-09-04T08:08:56.523Z,6.82
2022-09-04T08:12:30.200Z,6.97
2022-09-04T08:16:07.120Z,10.18
2022-09-04T08:19:53.020Z,5.97
2022-09-04T08:23:29.831Z,7.03
2022-09-04T08:27:03.983Z,7.72
2022-09-04T08:30:34.109Z,6.57
2022-09-04T08:34:16.792Z,7.63
2022-09-04T08:37:53.606Z,7.35
2022-09-04T08:41:58.122Z,7.45
2022-09-04T08:45:25.775Z,6.03
2022-09-04T08:48:50.570Z,7.40
2022-09-04T08:52:53.901Z,5.47
2022-09-04T08:56:47.138Z,7.65
2022-09-04T09:00:12.555Z,5.78
2022-09-04T09:04:11.972Z,6.80
2022-09-04T09:07:48.989Z,7.10
2022-09-04T09:11:25.694Z,7.97
2022-09-04T09:14:59.835Z,6.00
2022-09-04T09:18:45.671Z,9.43
2022-09-04T09:22:27.560Z,7.70
2022-09-04T09:26:15.092Z,8.00
2022-09-04T09:30:01.647Z,11.02
2022-09-04T09:33:54.703Z,6.25
2022-09-04T09:37:19.244Z,7.50
2022-09-04T09:41:18.141Z,7.07
2022-09-04T09:45:14.522Z,6.65
2022-09-04T09:49:15.510Z,4.90
2022-09-04T09:52:56.736Z,6.00
2022-09-04T09:56:40.314Z,10.07
2022-09-04T10:00:21.302Z,4.93
2022-09-04T10:04:24.577Z,5.43
2022-09-04T10:08:04.803Z,6.60
2022-09-04T10:11:29.610Z,10.43
2022-09-04T10:15:34.371Z,4.90
2022-09-04T10:19:23.199Z,8.27
2022-09-04T10:23:04.233Z,3.28
2022-09-04T10:27:11.699Z,6.70
2022-09-04T10:31:05.505Z,9.02
2022-09-04T10:35:09.352Z,5.97
2022-09-04T10:39:26.825Z,4.43
2022-09-04T10:43:19.743Z,3.00
2022-09-04T10:47:07.624Z,6.95
2022-09-04T10:50:50.796Z,6.75
2022-09-04T10:54:43.948Z,2.30
2022-09-04T10:58:29.040Z,3.00
2022-09-04T11:02:22.261Z,3.92
2022-09-04T11:06:12.082Z,4.13
2022-09-04T11:09:56.239Z,3.13
2022-09-04T11:13:50.612Z,3.75
2022-09-04T11:17:35.143Z,3.13
2022-09-04T11:21:29.145Z,2.47
2022-09-04T11:25:12.263Z,4.97
2022-09-04T11:28:44.089Z,3.75
2022-09-04T11:32:44.239Z,3.35
2022-09-04T11:36:50.934Z,3.10
2022-09-04T11:40:37.635Z,7.40
2022-09-04T11:44:15.083Z,2.58
2022-09-04T11:47:48.797Z,5.95
2022-09-04T11:51:25.974Z,4.03
2022-09-04T11:54:50.717Z,3.15
2022-09-04T11:58:47.348Z,4.35
2022-09-04T12:02:29.839Z,3.25
2022-09-04T12:06:34.920Z,2.80
2022-09-04T12:10:33.731Z,5.10
2022-09-04T12:13:56.211Z,4.00
2022-09-04T12:17:35.452Z,6.85
2022-09-04T12:21:37.888Z,2.60
2022-09-04T12:25:08.656Z,3.22
2022-09-04T12:28:52.103Z,3.90
2022-09-04T12:32:32.653Z,3.15
2022-09-04T12:36:28.623Z,2.72
2022-09-04T12:40:02.428Z,2.13
2022-09-04T12:43:56.861Z,4.72
2022-09-04T12:47:34.988Z,2.97
2022-09-04T12:51:09.438Z,2.00
2022-09-04T12:54:55.873Z,2.80
2022-09-04T12:58:26.120Z,5.97
2022-09-04T13:02:12.853Z,2.97
2022-09-04T13:06:04.105Z,4.38
2022-09-04T13:09:28.641Z,3.40
2022-09-04T13:13:11.623Z,1.98
2022-09-04T13:16:44.133Z,4.40
2022-09-04T13:20:40.201Z,3.97
2022-09-04T13:24:35.707Z,4.55
2022-09-04T13:28:20.508Z,3.53
2022-09-04T13:31:54.340Z,3.42
2022-09-04T13:35:42.531Z,3.40
2022-09-04T13:39:29.933Z,2.45
2022-09-04T13:43:29.566Z,5.22
2022-09-04T13:47:32.169Z,2.78
2022-09-04T13:51:00.897Z,6.07
2022-09-04T13:54:33.271Z,2.90
2022-09-04T13:58:13.816Z,3.67
2022-09-04T14:01:46.267Z,2.45
2022-09-04T14:05:10.754Z,1.95
2022-09-04T14:08:34.481Z,2.85
2022-09-04T14:12:24.695Z,2.53
2022-09-04T14:16:08.957Z,3.15
2022-09-04T14:19:54.824Z,2.47
2022-09-04T14:23:52.802Z,2.38
2022-09-04T14:27:46.737Z,4.95
2022-09-04T14:31:40.517Z,3.45
2022-09-04T14:35:23.174Z,2.97
2022-09-04T14:39:09.548Z,2.28
2022-09-04T14:42:41.423Z,1.63
2022-09-04T14:46:28.073Z,2.97
2022-09-04T14:49:51.693Z,4.97
2022-09-04T14:53:26.207Z,2.47
2022-09-04T14:57:35.579Z,5.38
2022-09-04T15:01:25.179Z,3.75
2022-09-04T15:05:10.483Z,2.45
2022-09-04T15:08:40.016Z,4.15
2022-09-04T15:12:24.301Z,1.88
2022-09-04T15:15:59.331Z,3.83
2022-09-04T15:19:28.099Z,3.35
2022-09-04T15:23:05.558Z,7.05
2022-09-04T15:26:55.621Z,2.03
2022-09-04T15:30:28.168Z,2.75
2022-09-04T15:33:50.054Z,1.88
2022-09-04T15:37:15.391Z,3.05
2022-09-04T15:40:59.657Z,2.50
2022-09-04T15:44:31.160Z,2.45
2022-09-04T15:48:04.909Z,1.95
2022-09-04T15:51:51.998Z,2.83
2022-09-04T15:55:39.926Z,2.85
2022-09-04T15:59:20.277Z,2.47
2022-09-04T16:03:38.141Z,2.05
2022-09-04T16:07:36.663Z,1.88
2022-09-04T16:11:07.323Z,3.60
2022-09-04T16:14:44.337Z,1.45
2022-09-04T16:18:15.822Z,1.90
2022-09-04T16:21:41.665Z,2.10
2022-09-04T16:25:23.954Z,1.70
2022-09-04T16:28:55.861Z,2.42
2022-09-04T16:32:27.274Z,2.05
2022-09-04T16:35:54.932Z,1.83
2022-09-04T16:39:42.412Z,1.80
2022-09-04T16:43:23.023Z,2.15
2022-09-04T16:47:02.785Z,1.17
2022-09-04T16:51:29.244Z,2.05
2022-09-04T16:55:25.370Z,2.83
2022-09-04T16:59:41.902Z,2.00
2022-09-04T17:03:25.038Z,3.65
2022-09-04T17:07:34.015Z,2.40
2022-09-04T17:11:09.885Z,4.78
2022-09-04T17:14:50.659Z,3.58
2022-09-04T17:18:13.919Z,4.07
2022-09-04T17:28:59.806Z,2.97
2022-09-04T17:29:16.882Z,2.72
2022-09-04T17:30:06.460Z,1.02
2022-09-04T17:40:25.118Z,3.20
2022-09-04T17:40:55.087Z,3.85
2022-09-04T17:41:59.457Z,1.55
2022-09-04T17:45:52.420Z,2.25
2022-09-04T17:49:29.472Z,2.53
2022-09-04T17:53:00.593Z,8.32
2022-09-04T17:56:48.282Z,2.55
2022-09-04T18:00:21.267Z,8.80
2022-09-04T18:04:19.879Z,7.28
2022-09-04T18:08:10.595Z,5.20
2022-09-04T18:11:45.717Z,9.38
2022-09-04T18:15:35.577Z,6.30
2022-09-04T18:19:14.632Z,2.58
2022-09-04T18:22:45.399Z,5.95
2022-09-04T18:26:17.603Z,6.85
2022-09-04T18:37:10.577Z,3.20
2022-09-04T18:37:22.288Z,4.68
2022-09-04T18:39:08.968Z,3.58
2022-09-04T18:50:22.620Z,6.35
2022-09-04T18:50:35.118Z,5.30
2022-09-04T18:50:49.101Z,6.15
2022-09-04T18:53:55.100Z,3.10
2022-09-04T18:57:48.727Z,3.35
2022-09-04T19:01:28.091Z,4.32
2022-09-04T19:04:58.793Z,4.22
2022-09-04T19:08:28.963Z,7.43
2022-09-04T19:11:54.790Z,6.05
2022-09-04T19:15:43.817Z,5.90
2022-09-04T19:19:17.717Z,8.07
2022-09-04T19:22:44.446Z,4.10
2022-09-04T19:26:28.790Z,5.95
2022-09-04T19:30:18.962Z,6.03
2022-09-04T19:34:18.287Z,10.07
2022-09-04T19:43:34.429Z,5.00
2022-09-04T19:46:00.252Z,8.57
2022-09-04T19:46:13.432Z,4.75
2022-09-04T19:50:57.085Z,6.75
2022-09-04T19:53:37.481Z,6.15
2022-09-04T19:57:33.222Z,4.65
2022-09-04T20:00:59.153Z,5.30
2022-09-04T20:04:33.268Z,4.72
2022-09-04T20:08:25.996Z,9.90
2022-09-04T20:11:56.412Z,10.05
2022-09-04T20:15:28.292Z,6.47
2022-09-04T20:19:08.515Z,6.32
2022-09-04T20:22:45.176Z,6.00
2022-09-04T20:26:09.316Z,4.22
2022-09-04T20:29:43.892Z,8.80
2022-09-04T20:33:26.039Z,5.10
2022-09-04T20:36:56.118Z,7.15
2022-09-04T20:40:24.954Z,5.45
2022-09-04T20:43:54.666Z,13.90
2022-09-04T20:52:55.662Z,270.58
2022-09-04T20:52:57.017Z,94.63
2022-09-04T20:55:51.963Z,433.52
2022-09-04T21:03:07.291Z,606.63
2022-09-04T21:03:54.853Z,647.90
2022-09-04T21:07:33.024Z,715.38
2022-09-04T21:11:38.844Z,770.70
2022-09-04T21:15:26.821Z,925.22
2022-09-04T21:19:28.965Z,986.97
2022-09-04T21:22:57.951Z,551.60
2022-09-04T21:27:05.237Z,1048.60
2022-09-04T21:31:03.777Z,840.78
2022-09-04T21:34:25.526Z,1214.75
2022-09-04T21:38:02.388Z,950.83
2022-09-04T21:41:29.222Z,1012.28
2022-09-04T21:45:22.904Z,1013.47
2022-09-04T21:49:09.561Z,928.25
2022-09-04T21:52:56.001Z,724.88
2022-09-04T22:02:29.701Z,1628.75
2022-09-04T22:02:36.511Z,1999.90
2022-09-04T22:04:44.744Z,1999.90
2022-09-04T22:13:34.973Z,1999.90
2022-09-04T22:13:42.210Z,1999.90
2022-09-04T22:16:52.598Z,1999.90
2022-09-04T22:20:43.619Z,1999.90
2022-09-04T22:24:31.149Z,1999.90
2022-09-04T22:28:14.991Z,1999.90
2022-09-04T22:32:10.143Z,1999.90
2022-09-04T22:36:18.162Z,1999.90
2022-09-04T22:39:48.715Z,1999.90
2022-09-04T22:43:23.323Z,1999.90
2022-09-04T22:47:20.024Z,1999.90
2022-09-04T22:51:23.920Z,1999.90
2022-09-04T22:55:39.438Z,1999.90
2022-09-04T22:59:40.028Z,1999.90
2022-09-04T23:03:21.601Z,1999.90
2022-09-04T23:12:10.866Z,1999.90
2022-09-04T23:13:49.105Z,1999.90
2022-09-04T23:14:55.894Z,928.10
2022-09-04T23:25:33.929Z,865.08
2022-09-04T23:26:44.824Z,952.70
2022-09-04T23:27:28.065Z,942.88
2022-09-04T23:31:27.308Z,1325.75
2022-09-04T23:35:16.360Z,1999.90
2022-09-04T23:38:57.095Z,1473.50
2022-09-04T23:42:45.855Z,682.65
2022-09-04T23:46:52.800Z,406.20
2022-09-04T23:50:20.545Z,203.55
2022-09-04T23:54:21.781Z,148.00
2022-09-04T23:57:55.239Z,4.40
